createdAt,value
2022-11-02T00:00:13.771Z,2.08
2022-11-02T00:01:27.561Z,2.20
2022-11-02T00:02:30.044Z,2.30
2022-11-02T00:03:31.879Z,2.17
2022-11-02T00:04:33.947Z,2.05
2022-11-02T00:05:36.277Z,2.10
2022-11-02T00:06:38.917Z,2.28
2022-11-02T00:07:41.545Z,2.10
2022-11-02T00:08:42.861Z,2.15
2022-11-02T00:09:48.076Z,1.92
2022-11-02T00:10:52.164Z,2.20
2022-11-02T00:11:56.393Z,1.90
2022-11-02T00:12:59.211Z,2.05
2022-11-02T00:14:00.820Z,1.92
2022-11-02T00:15:03.798Z,2.30
2022-11-02T00:16:08.268Z,1.73
2022-11-02T00:17:10.835Z,1.60
2022-11-02T00:18:15.277Z,1.50
2022-11-02T00:19:17.492Z,1.70
2022-11-02T00:20:19.467Z,1.90
2022-11-02T00:21:23.869Z,1.90
2022-11-02T00:22:26.557Z,1.90
2022-11-02T00:23:32.420Z,1.85
2022-11-02T00:24:33.997Z,2.10
2022-11-02T00:25:38.446Z,1.90
2022-11-02T00:26:40.884Z,1.50
2022-11-02T00:27:42.401Z,1.48
2022-11-02T00:28:45.980Z,1.63
2022-11-02T00:29:47.981Z,1.60
2022-11-02T00:30:49.850Z,1.63
2022-11-02T00:31:52.024Z,1.40
2022-11-02T00:32:54.048Z,2.10
2022-11-02T00:33:57.001Z,1.88
2022-11-02T00:34:58.841Z,1.77
2022-11-02T00:36:01.097Z,1.52
2022-11-02T00:37:02.368Z,1.50
2022-11-02T00:38:04.409Z,1.80
2022-11-02T00:39:09.452Z,1.65
2022-11-02T00:40:12.095Z,2.10
2022-11-02T00:41:14.776Z,1.90
2022-11-02T00:42:17.239Z,1.67
2022-11-02T00:43:18.996Z,1.50
2022-11-02T00:44:23.932Z,1.60
2022-11-02T00:45:25.190Z,1.77
2022-11-02T00:46:30.111Z,1.70
2022-11-02T00:47:32.004Z,1.58
2022-11-02T00:48:36.624Z,2.00
2022-11-02T00:49:38.958Z,1.50
2022-11-02T00:50:41.189Z,1.92
2022-11-02T00:51:47.287Z,1.50
2022-11-02T00:52:48.951Z,1.40
2022-11-02T00:53:53.211Z,1.50
2022-11-02T00:54:55.970Z,1.40
2022-11-02T00:55:57.861Z,1.55
2022-11-02T00:58:03.397Z,1.90
2022-11-02T00:59:06.473Z,1.45
2022-11-02T01:00:09.162Z,1.75
2022-11-02T01:01:11.031Z,1.35
2022-11-02T01:02:12.990Z,1.48
2022-11-02T01:03:14.861Z,1.38
2022-11-02T01:04:21.590Z,1.50
2022-11-02T01:05:26.260Z,1.63
2022-11-02T01:06:27.561Z,1.48
2022-11-02T01:07:30.009Z,1.60
2022-11-02T01:08:32.638Z,1.70
2022-11-02T01:09:35.234Z,1.70
2022-11-02T01:10:36.944Z,1.50
2022-11-02T01:11:40.075Z,1.75
2022-11-02T01:12:41.877Z,1.58
2022-11-02T01:13:44.337Z,1.80
2022-11-02T01:14:46.322Z,1.35
2022-11-02T01:15:50.049Z,1.48
2022-11-02T01:16:52.193Z,1.55
2022-11-02T01:17:54.870Z,1.40
2022-11-02T01:18:57.161Z,1.83
2022-11-02T01:19:59.645Z,1.50
2022-11-02T01:21:03.384Z,1.65
2022-11-02T01:22:06.037Z,1.50
2022-11-02T01:23:09.412Z,1.67
2022-11-02T01:24:12.895Z,1.80
2022-11-02T01:25:15.563Z,1.95
2022-11-02T01:26:17.077Z,1.70
2022-11-02T01:27:18.324Z,1.75
2022-11-02T01:28:19.608Z,1.70
2022-11-02T01:29:20.897Z,1.63
2022-11-02T01:30:27.080Z,1.90
2022-11-02T01:31:31.192Z,1.60
2022-11-02T01:32:33.885Z,1.50
2022-11-02T01:33:36.147Z,1.60
2022-11-02T01:34:39.053Z,1.55
2022-11-02T01:35:40.630Z,1.85
2022-11-02T01:36:44.568Z,1.80
2022-11-02T01:37:45.863Z,1.83
2022-11-02T01:38:47.596Z,1.77
2022-11-02T01:39:48.847Z,1.95
2022-11-02T01:40:50.473Z,2.03
2022-11-02T01:41:56.505Z,1.52
2022-11-02T01:42:59.381Z,2.00
2022-11-02T01:44:04.002Z,1.90
2022-11-02T01:45:06.637Z,1.70
2022-11-02T01:46:15.980Z,1.70
2022-11-02T01:47:35.556Z,1.70
2022-11-02T01:48:39.567Z,1.88
2022-11-02T01:49:43.804Z,1.60
2022-11-02T01:50:46.381Z,1.70
2022-11-02T01:52:04.803Z,1.52
2022-11-02T01:53:06.987Z,1.80
2022-11-02T01:54:13.859Z,1.67
2022-11-02T01:55:19.504Z,2.03
2022-11-02T01:56:31.831Z,1.80
2022-11-02T01:57:35.588Z,1.67
2022-11-02T01:58:40.538Z,1.63
2022-11-02T01:59:54.083Z,1.60
2022-11-02T02:00:58.804Z,1.60
2022-11-02T02:02:01.382Z,1.90
2022-11-02T02:03:08.919Z,1.60
2022-11-02T02:04:12.117Z,1.65
2022-11-02T02:05:15.126Z,1.85
2022-11-02T02:06:18.031Z,1.67
2022-11-02T02:07:20.180Z,1.80
2022-11-02T02:08:23.965Z,2.20
2022-11-02T02:09:26.694Z,1.80
2022-11-02T02:10:27.960Z,1.60
2022-11-02T02:11:39.041Z,1.98
2022-11-02T02:12:41.773Z,1.80
2022-11-02T02:13:43.961Z,1.55
2022-11-02T02:14:46.194Z,1.75
2022-11-02T02:16:06.152Z,1.55
2022-11-02T02:17:30.332Z,1.58
2022-11-02T02:18:46.401Z,1.60
2022-11-02T02:20:06.879Z,1.42
2022-11-02T02:21:23.114Z,1.50
2022-11-02T02:22:57.112Z,1.70
2022-11-02T02:24:17.378Z,1.52
2022-11-02T02:25:28.453Z,1.60
2022-11-02T02:26:39.447Z,1.90
2022-11-02T02:27:59.837Z,1.70
2022-11-02T02:29:15.762Z,1.60
2022-11-02T02:30:18.519Z,1.67
2022-11-02T02:31:40.345Z,1.73
2022-11-02T02:32:53.236Z,2.10
2022-11-02T02:34:31.854Z,1.70
2022-11-02T02:35:42.598Z,1.80
2022-11-02T02:37:04.901Z,2.05
2022-11-02T02:38:11.069Z,2.00
2022-11-02T02:39:21.296Z,1.90
2022-11-02T02:40:35.314Z,1.77
2022-11-02T02:41:55.566Z,1.83
2022-11-02T02:42:59.196Z,2.05
2022-11-02T02:44:03.223Z,2.35
2022-11-02T02:45:20.053Z,2.10
2022-11-02T02:46:25.811Z,2.05
2022-11-02T02:47:29.132Z,2.03
2022-11-02T02:48:32.533Z,1.60
2022-11-02T02:49:39.848Z,2.15
2022-11-02T02:55:55.124Z,1.85
2022-11-02T02:57:02.718Z,2.00
2022-11-02T02:58:09.429Z,1.92
2022-11-02T02:59:29.156Z,2.50
2022-11-02T03:00:34.028Z,2.10
2022-11-02T03:01:39.626Z,2.05
2022-11-02T03:02:43.547Z,2.08
2022-11-02T03:03:47.354Z,1.95
2022-11-02T03:04:48.708Z,1.90
2022-11-02T03:06:12.346Z,1.88
2022-11-02T03:07:16.220Z,2.08
2022-11-02T03:08:17.921Z,1.95
2022-11-02T03:09:30.524Z,1.50
2022-11-02T03:10:51.255Z,1.92
2022-11-02T03:12:03.885Z,1.38
2022-11-02T03:13:24.040Z,1.60
2022-11-02T03:14:37.373Z,1.70
2022-11-02T03:15:59.900Z,1.65
2022-11-02T03:17:20.030Z,1.50
2022-11-02T03:18:39.702Z,1.45
2022-11-02T03:20:02.021Z,1.83
2022-11-02T03:21:13.434Z,2.20
2022-11-02T03:22:25.515Z,1.70
2022-11-02T03:23:52.072Z,2.15
2022-11-02T03:38:50.601Z,1.60
2022-11-02T03:40:06.201Z,1.50
2022-11-02T03:41:08.746Z,1.40
2022-11-02T03:42:13.459Z,1.13
2022-11-02T03:43:18.099Z,1.75
2022-11-02T03:44:26.244Z,1.35
2022-11-02T03:45:31.982Z,1.20
2022-11-02T03:46:36.345Z,1.65
2022-11-02T03:47:38.386Z,1.55
2022-11-02T03:48:47.224Z,1.92
2022-11-02T03:49:50.296Z,1.50
2022-11-02T03:50:52.873Z,1.35
2022-11-02T03:51:56.244Z,1.92
2022-11-02T03:53:02.315Z,1.70
2022-11-02T03:54:23.206Z,1.92
2022-11-02T03:55:35.657Z,2.28
2022-11-02T03:56:55.599Z,1.77
2022-11-02T03:57:58.035Z,1.80
2022-11-02T03:59:00.070Z,2.10
2022-11-02T04:00:30.884Z,1.70
2022-11-02T04:01:37.095Z,1.60
2022-11-02T04:02:41.091Z,2.40
2022-11-02T04:03:46.936Z,2.22
2022-11-02T04:04:50.468Z,1.55
2022-11-02T04:05:51.949Z,1.60
2022-11-02T04:08:17.840Z,1.80
2022-11-02T04:09:20.325Z,2.50
2022-11-02T04:10:24.088Z,2.25
2022-11-02T04:11:47.340Z,2.20
2022-11-02T04:13:10.457Z,2.78
2022-11-02T04:14:32.844Z,2.15
2022-11-02T04:15:37.068Z,2.30
2022-11-02T04:16:39.456Z,2.58
2022-11-02T04:17:59.854Z,2.50
2022-11-02T04:19:22.008Z,2.10
2022-11-02T04:20:26.293Z,2.22
2022-11-02T04:21:28.168Z,2.87
2022-11-02T04:22:50.928Z,1.63
2022-11-02T04:24:12.396Z,1.35
2022-11-02T04:25:16.053Z,3.30
2022-11-02T04:26:17.400Z,3.20
2022-11-02T04:27:21.300Z,2.53
2022-11-02T05:30:08.330Z,2.70
2022-11-02T05:31:12.863Z,3.55
2022-11-02T05:32:16.177Z,3.00
2022-11-02T05:33:19.243Z,3.13
2022-11-02T05:34:21.060Z,3.30
2022-11-02T05:35:24.919Z,3.10
2022-11-02T05:36:27.209Z,2.90
2022-11-02T05:37:29.777Z,3.00
2022-11-02T05:38:32.050Z,3.45
2022-11-02T05:39:35.471Z,3.88
2022-11-02T05:40:42.856Z,2.65
2022-11-02T05:41:46.997Z,2.65
2022-11-02T05:42:48.259Z,2.55
2022-11-02T05:43:49.545Z,2.08
2022-11-02T05:44:50.968Z,2.50
2022-11-02T05:45:56.365Z,3.38
2022-11-02T05:46:58.061Z,2.28
2022-11-02T05:48:05.778Z,3.55
2022-11-02T05:49:08.347Z,2.50
2022-11-02T05:50:10.963Z,2.65
2022-11-02T05:51:13.009Z,2.30
2022-11-02T05:52:14.746Z,2.42
2022-11-02T05:53:18.859Z,2.80
2022-11-02T05:54:20.520Z,2.80
2022-11-02T05:55:22.075Z,3.88
2022-11-02T05:57:16.378Z,3.10
2022-11-02T05:58:18.272Z,3.00
2022-11-02T05:59:22.663Z,3.08
2022-11-02T06:00:24.314Z,2.42
2022-11-02T06:01:25.860Z,2.38
2022-11-02T06:02:30.784Z,2.88
2022-11-02T06:03:32.207Z,2.42
2022-11-02T06:05:37.796Z,2.95
2022-11-02T06:06:40.667Z,2.45
2022-11-02T06:07:42.106Z,2.50
2022-11-02T06:09:46.158Z,2.15
2022-11-02T06:10:49.113Z,2.65
2022-11-02T06:11:51.257Z,2.85
2022-11-02T06:12:56.662Z,2.53
2022-11-02T06:14:00.545Z,2.85
2022-11-02T06:15:03.642Z,3.13
2022-11-02T06:16:06.517Z,3.13
2022-11-02T06:17:07.905Z,3.00
2022-11-02T06:19:11.249Z,2.80
2022-11-02T06:20:15.356Z,2.78
2022-11-02T06:21:17.466Z,2.67
2022-11-02T06:22:23.716Z,2.92
2022-11-02T06:23:25.544Z,3.58
2022-11-02T06:24:28.260Z,3.33
2022-11-02T06:25:32.451Z,3.42
2022-11-02T06:26:34.039Z,3.08
2022-11-02T06:27:36.338Z,4.65
2022-11-02T06:28:38.522Z,3.88
2022-11-02T06:29:43.093Z,3.90
2022-11-02T06:30:46.584Z,4.47
2022-11-02T06:31:49.253Z,3.83
2022-11-02T06:32:52.173Z,4.30
2022-11-02T06:33:56.652Z,5.55
2022-11-02T06:34:58.048Z,3.85
2022-11-02T06:37:02.140Z,4.55
2022-11-02T06:38:04.874Z,5.57
2022-11-02T06:39:06.272Z,4.60
2022-11-02T06:41:12.375Z,5.32
2022-11-02T06:42:14.243Z,5.07
2022-11-02T06:43:17.287Z,5.70
2022-11-02T06:44:19.205Z,6.03
2022-11-02T06:46:25.730Z,6.05
2022-11-02T06:47:31.329Z,5.63
2022-11-02T06:48:35.511Z,5.50
2022-11-02T06:49:38.792Z,5.15
2022-11-02T06:50:42.494Z,5.60
2022-11-02T06:51:47.375Z,5.45
2022-11-02T06:52:49.934Z,5.70
2022-11-02T06:53:52.215Z,5.85
2022-11-02T06:54:54.089Z,5.63
2022-11-02T06:55:59.262Z,4.72
2022-11-02T06:57:03.701Z,5.72
2022-11-02T06:58:07.990Z,5.15
2022-11-02T06:59:10.374Z,6.43
2022-11-02T07:00:16.513Z,6.20
2022-11-02T07:01:21.426Z,5.47
2022-11-02T07:02:28.382Z,5.45
2022-11-02T07:03:30.788Z,5.82
2022-11-02T07:04:33.382Z,5.30
2022-11-02T07:05:35.633Z,5.05
2022-11-02T07:06:36.973Z,4.22
2022-11-02T07:07:39.186Z,4.40
2022-11-02T07:08:42.482Z,5.20
2022-11-02T07:09:44.209Z,5.57
2022-11-02T07:10:46.216Z,6.00
2022-11-02T07:11:47.641Z,5.50
2022-11-02T07:13:50.293Z,5.32
2022-11-02T07:14:51.592Z,4.78
2022-11-02T07:15:54.703Z,5.70
2022-11-02T07:16:56.609Z,5.50
2022-11-02T07:17:59.307Z,4.72
2022-11-02T07:19:01.139Z,4.85
2022-11-02T07:20:04.220Z,4.32
2022-11-02T07:21:07.546Z,4.03
2022-11-02T07:22:09.100Z,3.17
2022-11-02T07:34:00.174Z,4.15
2022-11-02T07:39:43.756Z,2.83
2022-11-02T07:41:01.846Z,2.25
2022-11-02T07:43:41.384Z,3.33
2022-11-02T07:45:17.430Z,3.70
2022-11-02T07:46:22.291Z,2.80
2022-11-02T07:47:35.606Z,2.40
2022-11-02T07:48:48.875Z,2.00
2022-11-02T07:50:01.368Z,3.50
2022-11-02T07:51:03.891Z,1.83
2022-11-02T07:52:16.176Z,1.90
2022-11-02T07:53:26.621Z,2.88
2022-11-02T07:54:44.336Z,2.05
2022-11-02T07:56:06.766Z,1.67
2022-11-02T07:57:17.829Z,1.42
2022-11-02T07:58:32.281Z,1.92
2022-11-02T08:01:11.980Z,1.73
2022-11-02T08:03:12.790Z,1.55
2022-11-02T08:04:33.971Z,1.42
2022-11-02T08:05:40.506Z,1.63
2022-11-02T08:07:01.993Z,1.80
2022-11-02T08:08:29.304Z,1.85
2022-11-02T08:09:31.866Z,1.70
2022-11-02T08:10:40.810Z,1.80
2022-11-02T08:12:01.234Z,1.83
2022-11-02T08:13:07.863Z,1.70
2022-11-02T08:14:16.624Z,1.73
2022-11-02T08:15:20.604Z,1.48
2022-11-02T08:16:32.855Z,1.55
2022-11-02T08:17:41.724Z,1.88
2022-11-02T08:19:09.503Z,2.70
2022-11-02T08:20:32.724Z,2.03
2022-11-02T08:22:00.603Z,2.50
2022-11-02T08:23:11.803Z,2.25
2022-11-02T08:24:14.925Z,1.60
2022-11-02T08:25:21.515Z,1.70
2022-11-02T08:26:27.434Z,1.50
2022-11-02T08:27:38.342Z,4.18
2022-11-02T08:30:12.102Z,1.85
2022-11-02T08:31:25.009Z,1.85
2022-11-02T08:32:30.763Z,1.60
2022-11-02T08:33:34.277Z,1.30
2022-11-02T08:34:39.723Z,1.58
2022-11-02T08:35:43.494Z,1.52
2022-11-02T08:36:45.423Z,2.05
2022-11-02T08:38:06.077Z,2.20
2022-11-02T08:39:18.592Z,1.33
2022-11-02T08:40:22.874Z,1.60
2022-11-02T08:41:27.662Z,1.80
2022-11-02T08:42:31.544Z,1.65
2022-11-02T08:43:33.565Z,1.90
2022-11-02T08:44:41.480Z,1.20
2022-11-02T08:47:26.785Z,1.42
2022-11-02T08:48:28.733Z,2.00
2022-11-02T08:49:32.861Z,1.52
2022-11-02T08:51:03.523Z,1.67
2022-11-02T08:52:26.136Z,1.70
2022-11-02T08:53:27.832Z,2.05
2022-11-02T08:54:30.402Z,1.55
2022-11-02T08:55:37.700Z,1.73
2022-11-02T08:56:42.999Z,2.10
2022-11-02T08:58:04.829Z,1.77
2022-11-02T08:59:06.702Z,1.88
2022-11-02T09:00:10.283Z,1.70
2022-11-02T09:01:14.886Z,1.52
2022-11-02T09:02:17.527Z,2.33
2022-11-02T09:03:26.204Z,1.50
2022-11-02T09:05:56.900Z,1.45
2022-11-02T09:07:00.230Z,1.33
2022-11-02T09:08:07.217Z,1.50
2022-11-02T09:09:09.026Z,1.40
2022-11-02T09:10:12.639Z,1.30
2022-11-02T09:11:14.622Z,1.55
2022-11-02T09:12:16.761Z,1.45
2022-11-02T09:13:22.380Z,1.95
2022-11-02T09:14:24.120Z,1.60
2022-11-02T09:15:27.820Z,1.73
2022-11-02T15:44:51.181Z,1.70
2022-11-02T15:48:24.274Z,2.45
2022-11-02T15:49:48.648Z,1.70
2022-11-02T15:51:02.183Z,2.07
2022-11-02T15:52:25.677Z,3.00
2022-11-02T15:53:46.497Z,3.17
2022-11-02T15:54:56.303Z,3.05
2022-11-02T15:56:16.426Z,3.22
2022-11-02T15:57:36.943Z,3.00
2022-11-02T15:58:57.801Z,2.90
2022-11-02T16:00:04.100Z,3.00
2022-11-02T16:01:11.595Z,3.25
2022-11-02T16:23:58.404Z,2.72
2022-11-02T16:43:54.169Z,2.75
2022-11-02T16:44:57.714Z,3.25
2022-11-02T16:46:01.147Z,2.22
2022-11-02T16:47:11.613Z,5.53
2022-11-02T16:48:23.854Z,2.63
2022-11-02T16:49:26.279Z,2.75
2022-11-02T16:50:29.504Z,2.40
2022-11-02T16:51:30.852Z,2.50
2022-11-02T16:52:33.995Z,2.65
2022-11-02T16:53:36.452Z,2.50
2022-11-02T16:54:42.299Z,2.70
2022-11-02T16:55:45.442Z,2.53
2022-11-02T16:56:49.129Z,2.33
2022-11-02T16:57:50.419Z,2.22
2022-11-02T16:58:53.737Z,2.30
2022-11-02T17:00:25.458Z,2.38
2022-11-02T17:01:36.580Z,3.22
2022-11-02T17:02:41.927Z,3.90
2022-11-02T17:03:43.517Z,3.90
2022-11-02T17:04:47.363Z,3.78
2022-11-02T17:05:49.703Z,3.90
2022-11-02T17:06:52.920Z,3.90
2022-11-02T17:07:54.280Z,7.38
2022-11-02T17:08:56.968Z,5.60
2022-11-02T17:10:04.885Z,5.07
2022-11-02T17:11:07.636Z,3.50
2022-11-02T17:12:14.437Z,2.40
2022-11-02T17:13:21.498Z,2.30
2022-11-02T17:14:24.777Z,2.70
2022-11-02T17:15:31.314Z,2.80
2022-11-02T17:16:35.441Z,2.75
2022-11-02T17:17:39.473Z,3.20
2022-11-02T17:18:41.381Z,3.30
2022-11-02T17:20:01.344Z,3.40
2022-11-02T17:21:23.178Z,3.83
2022-11-02T17:22:26.512Z,3.40
2022-11-02T17:23:34.606Z,3.22
2022-11-02T17:24:37.788Z,6.90
2022-11-02T17:25:40.333Z,17.75
2022-11-02T17:26:43.473Z,11.13
2022-11-02T17:27:47.336Z,7.97
2022-11-02T17:28:54.340Z,4.32
2022-11-02T17:29:56.539Z,4.35
2022-11-02T17:31:02.211Z,4.20
2022-11-02T17:32:09.706Z,3.67
2022-11-02T17:33:31.452Z,3.72
2022-11-02T17:34:36.064Z,4.00
2022-11-02T17:35:47.512Z,3.30
2022-11-02T17:36:49.679Z,2.58
2022-11-02T17:37:53.218Z,2.63
2022-11-02T17:38:55.685Z,2.55
2022-11-02T17:40:04.401Z,2.70
2022-11-02T17:41:26.800Z,3.00
2022-11-02T17:42:48.268Z,2.83
2022-11-02T17:43:51.017Z,4.00
2022-11-02T17:44:53.555Z,4.40
2022-11-02T17:46:00.785Z,4.97
2022-11-02T17:47:05.819Z,5.55
2022-11-02T17:48:10.517Z,5.75
2022-11-02T17:49:13.454Z,5.28
2022-11-02T17:50:15.764Z,6.13
2022-11-02T17:51:20.128Z,6.75
2022-11-02T17:53:27.394Z,5.78
2022-11-02T17:54:30.112Z,5.95
2022-11-02T17:55:32.519Z,4.50
2022-11-02T17:56:35.616Z,4.88
2022-11-02T17:57:37.096Z,4.50
2022-11-02T17:59:40.540Z,5.32
2022-11-02T18:01:44.586Z,5.68
2022-11-02T18:02:57.002Z,6.28
2022-11-02T18:03:58.633Z,6.90
2022-11-02T18:05:00.435Z,6.75
2022-11-02T18:06:02.902Z,6.93
2022-11-02T18:07:04.508Z,7.05
2022-11-02T18:08:09.425Z,10.82
2022-11-02T18:09:11.520Z,8.93
2022-11-02T18:10:13.596Z,10.40
2022-11-02T18:11:15.452Z,7.13
2022-11-02T18:12:17.858Z,9.65
2022-11-02T18:13:20.342Z,7.80
2022-11-02T18:14:22.916Z,7.25
2022-11-02T18:15:25.973Z,5.55
2022-11-02T18:16:27.473Z,5.05
2022-11-02T18:18:39.472Z,4.20
2022-11-02T18:19:41.123Z,5.43
2022-11-02T18:20:42.441Z,5.40
2022-11-02T18:21:45.160Z,5.15
2022-11-02T18:22:47.594Z,4.75
2022-11-02T18:23:50.015Z,4.90
2022-11-02T18:24:51.788Z,5.50
2022-11-02T18:25:59.233Z,5.18
2022-11-02T18:27:02.970Z,5.53
2022-11-02T18:28:05.057Z,5.97
2022-11-02T18:29:07.530Z,5.60
2022-11-02T18:30:12.118Z,7.35
2022-11-02T18:31:16.752Z,5.90
2022-11-02T18:32:19.416Z,7.45
2022-11-02T18:33:22.302Z,8.15
2022-11-02T18:34:26.194Z,6.40
2022-11-02T18:35:28.583Z,6.63
2022-11-02T18:36:32.752Z,9.40
2022-11-02T18:37:34.566Z,8.77
2022-11-02T18:38:37.780Z,4.40
2022-11-02T18:39:42.521Z,6.32
2022-11-02T18:40:45.473Z,5.72
2022-11-02T18:41:47.819Z,5.93
2022-11-02T18:42:50.564Z,6.65
2022-11-02T18:43:59.085Z,6.30
2022-11-02T18:47:09.601Z,4.78
2022-11-02T18:48:12.721Z,4.75
2022-11-02T18:49:14.796Z,5.05
2022-11-02T18:50:16.229Z,5.25
2022-11-02T18:52:22.403Z,5.10
2022-11-02T18:53:24.234Z,6.80
2022-11-02T18:55:27.113Z,5.72
2022-11-02T18:56:29.340Z,4.97
2022-11-02T18:57:32.407Z,6.70
2022-11-02T18:58:34.985Z,6.82
2022-11-02T18:59:37.131Z,6.25
2022-11-02T19:02:42.535Z,6.15
2022-11-02T19:06:15.914Z,4.82
2022-11-02T19:07:36.295Z,5.75
2022-11-02T19:10:04.107Z,4.50
2022-11-02T19:11:05.821Z,4.30
2022-11-02T19:13:10.628Z,4.85
2022-11-02T19:14:13.103Z,5.10
2022-11-02T19:15:14.553Z,5.50
2022-11-02T19:17:18.845Z,5.30
2022-11-02T19:18:23.614Z,5.10
2022-11-02T19:19:25.498Z,5.18
2022-11-02T19:20:28.663Z,5.35
2022-11-02T19:21:31.633Z,5.25
2022-11-02T19:22:33.657Z,5.03
2022-11-02T19:23:36.421Z,4.22
2022-11-02T19:24:38.838Z,4.60
2022-11-02T19:25:40.863Z,4.65
2022-11-02T19:26:45.964Z,4.22
2022-11-02T19:27:47.776Z,5.32
2022-11-02T19:28:49.499Z,4.85
2022-11-02T19:29:51.913Z,4.90
2022-11-02T19:30:54.698Z,4.80
2022-11-02T19:31:56.538Z,4.20
2022-11-02T19:32:58.790Z,4.80
2022-11-02T19:34:00.656Z,5.13
2022-11-02T19:35:02.690Z,5.35
2022-11-02T19:36:06.456Z,3.97
2022-11-02T19:37:09.698Z,4.45
2022-11-02T19:38:12.696Z,4.40
2022-11-02T19:39:15.593Z,5.10
2022-11-02T19:40:17.571Z,5.28
2022-11-02T19:41:21.729Z,12.93
2022-11-02T19:44:42.256Z,4.60
2022-11-02T19:45:45.255Z,4.55
2022-11-02T19:46:47.762Z,3.90
2022-11-02T19:48:53.644Z,4.43
2022-11-02T19:56:13.987Z,5.03
2022-11-02T20:01:31.903Z,5.43
2022-11-02T20:02:34.694Z,5.38
2022-11-02T20:03:39.814Z,6.57
2022-11-02T20:04:44.349Z,6.63
2022-11-02T20:05:49.528Z,6.20
2022-11-02T20:06:52.292Z,5.25
2022-11-02T20:07:54.534Z,5.78
2022-11-02T20:08:59.633Z,6.03
2022-11-02T20:10:01.595Z,7.30
2022-11-02T20:11:08.782Z,6.68
2022-11-02T20:12:12.279Z,6.60
2022-11-02T20:13:18.636Z,7.63
2022-11-02T20:14:20.817Z,10.27
2022-11-02T20:15:23.646Z,9.23
2022-11-02T20:16:25.691Z,7.28
2022-11-02T20:17:38.058Z,7.22
2022-11-02T20:18:50.575Z,6.30
2022-11-02T20:19:52.981Z,6.20
2022-11-02T20:20:54.550Z,5.55
2022-11-02T20:21:57.946Z,5.50
2022-11-02T20:22:59.598Z,5.40
2022-11-02T20:24:03.008Z,4.75
2022-11-02T20:25:09.250Z,5.15
2022-11-02T20:26:13.803Z,5.63
2022-11-02T20:31:30.889Z,4.45
2022-11-02T20:32:32.836Z,4.93
2022-11-02T20:41:57.486Z,4.72
2022-11-02T20:43:02.755Z,5.38
2022-11-02T20:44:04.704Z,4.97
2022-11-02T20:45:06.327Z,5.35
2022-11-02T20:47:36.187Z,5.32
2022-11-02T20:48:40.864Z,5.18
2022-11-02T20:49:50.488Z,5.38
2022-11-02T20:55:08.965Z,8.65
2022-11-02T21:12:13.511Z,4.63
2022-11-02T21:13:49.940Z,5.43
2022-11-02T21:26:50.630Z,5.30
2022-11-02T21:27:55.416Z,5.30
2022-11-02T21:28:57.879Z,5.55
2022-11-02T21:29:59.813Z,5.57
2022-11-02T21:31:02.672Z,5.65
2022-11-02T21:32:04.972Z,7.05
2022-11-02T21:33:09.320Z,5.78
2022-11-02T21:34:12.418Z,5.25
2022-11-02T21:35:14.575Z,5.35
2022-11-02T21:36:18.125Z,4.75
2022-11-02T21:37:22.021Z,5.95
2022-11-02T21:38:24.864Z,5.57
2022-11-02T21:39:27.695Z,4.53
2022-11-02T21:40:30.130Z,5.18
2022-11-02T21:41:36.990Z,4.88
2022-11-02T21:42:39.612Z,4.60
2022-11-02T21:43:41.498Z,5.35
2022-11-02T21:44:46.414Z,5.07
2022-11-02T21:45:53.780Z,4.60
2022-11-02T22:03:01.512Z,5.30
2022-11-02T22:09:35.862Z,5.45
2022-11-02T22:10:37.150Z,5.63
2022-11-02T22:11:40.031Z,6.40
2022-11-02T22:13:01.582Z,5.88
2022-11-02T22:14:04.723Z,5.93
2022-11-02T22:15:06.921Z,5.38
2022-11-02T22:16:14.999Z,5.43
2022-11-02T22:17:28.663Z,5.63
2022-11-02T22:18:40.565Z,5.65
2022-11-02T22:19:42.524Z,5.65
2022-11-02T22:24:56.527Z,5.35
2022-11-02T22:30:07.258Z,5.38
2022-11-02T22:32:13.361Z,6.30
2022-11-02T22:44:16.791Z,5.47
2022-11-02T22:45:19.327Z,5.93
2022-11-02T22:46:21.096Z,5.90
2022-11-02T22:47:26.301Z,5.68
2022-11-02T22:48:30.922Z,6.25
2022-11-02T22:49:36.621Z,5.82
2022-11-02T22:50:41.075Z,5.55
2022-11-02T23:06:24.011Z,5.45
2022-11-02T23:09:30.594Z,4.63
2022-11-02T23:17:25.718Z,5.38
2022-11-02T23:23:39.345Z,5.30
2022-11-02T23:26:02.677Z,4.68
2022-11-02T23:27:05.220Z,5.32
2022-11-02T23:28:27.521Z,5.40
2022-11-02T23:29:48.166Z,4.85
2022-11-02T23:31:11.101Z,5.40
2022-11-02T23:32:30.797Z,5.38
2022-11-02T23:33:33.583Z,5.35
2022-11-02T23:34:36.211Z,5.05
2022-11-02T23:35:56.541Z,4.90
2022-11-02T23:36:58.935Z,5.38
2022-11-02T23:38:02.371Z,5.68
2022-11-02T23:39:24.778Z,5.35
2022-11-02T23:40:26.675Z,4.78
2022-11-02T23:41:32.171Z,5.10
2022-11-02T23:50:07.449Z,4.70
2022-11-02T23:57:48.561Z,5.32
